Архив погоды в Нижнем Тагиле

Метеограмма Нижний Тагил
Понедельник, 25 Июня
Время местн. Темп Ветер Видим Явления Облачность нижн/средн/верх Атм. давл. Влжн Точка росы ВНГО R Сост. почвы Tg s
Напр Скр Прв ур.ст ур.м изм
05:00 +10.1° В,Ю-В 1 - 4 км дымка ясно 738 762 +0.5 98% +9.8° более 2.5 км - - - -
02:00 +10.9° В,Ю-В 1 - 20 км - ясно 738 761 +0.2 94% +10° более 2.5 км - - - -
Воскресенье, 24 Июня
Время местн. Темп Ветер Видим Явления Облачность нижн/средн/верх Атм. давл. Влжн Точка росы ВНГО R Сост. почвы Tg s
Напр Скр Прв ур.ст ур.м изм
23:00 +14° Ю-В 1 - 20 км - ясно 738 761 +0.8 85% +11.5° более 2.5 км - - - -
20:00 +24° С 2 10 20 км - переменная облачность 737 759 +0.1 45% +11.3° более 2.5 км 0 - - -
17:00 +25.3° С-З 6 10 20 км - переменная облачность 737 759 +0.2 33% +7.7° 1 км - - - -
14:00 +23.6° С 4 - 20 км - облачно с прояснениями 737 759 +0.4 46% +11.4° 1 км - - - -
11:00 +20.2° С 4 - 20 км - преимущественно облачно 736 759 +0.6 62% +12.6° 1 км - - - -
08:00 +17.6° С 5 - 20 км - переменная облачность 736 758 +1.3 72% +12.4° 1 км 0 Влажная (без луж) +11° -
05:00 +11.9° З 1 - 20 км - ясно 734 757 +0.9 92% +10.6° более 2.5 км - - - -
02:00 +13.2° З,Ю-З 1 - 20 км - переменная облачность 733 756 +1.1 81% +10° более 2.5 км - - - -
Суббота, 23 Июня
Время местн. Темп Ветер Видим Явления Облачность нижн/средн/верх Атм. давл. Влжн Точка росы ВНГО R Сост. почвы Tg s
Напр Скр Прв ур.ст ур.м изм
23:00 +18.6° С-З 3 - 20 км - переменная облачность 732 755 +0.8 54% +9° более 2.5 км - - - -
20:00 +22.1° С-З 3 12 20 км - переменная облачность 732 754 +0.7 42% +8.6° 1 км 0 - - -
17:00 +23.7° С-З 5 12 20 км - облачно с прояснениями 731 753 +0.5 37% +8.1° 1 км - - - -
14:00 +22.8° С-З 5 13 20 км - переменная облачность 730 753 0 45% +10.2° 1 км - - - -
11:00 +21° С-З 4 - 20 км - переменная облачность 730 753 0 57% +12.2° 1 км - - - -
08:00 +17° З,С-З 3 - 20 км - переменная облачность 730 753 +0.8 74% +12.4° более 2.5 км 4 Влажная (без луж) +11° -
05:00 +11.9° З,Ю-З 1 - 20 км - ясно 730 753 +0.6 95% +11.2° более 2.5 км - - - -
02:00 +13.4° З 2 - 20 км - облачно 729 752 +0.3 90% +11.8° 1 км - - - -
Пятница, 22 Июня
Время местн. Темп Ветер Видим Явления Облачность нижн/средн/верх Атм. давл. Влжн Точка росы ВНГО R Сост. почвы Tg s
Напр Скр Прв ур.ст ур.м изм
23:00 +13.4° З 2 - 20 км гроза {ливневые осадки} облачно с прояснениями 729 751 +1.7 96% +12.7° 1 км - - - -
20:00 +17.8° С-З 2 - 20 км облака рассеиваются {ливневые осадки} переменная облачность 727 749 +1 72% +12.6° 1 км 3 - - -
17:00 +14.7° С 3 12 4 км слабый ливневый дождь облачно 726 749 +1.3 89% +12.9° 1 км - - - -
14:00 +14.9° З,С-З 5 12 20 км - облачно 725 747 +1.4 82% +11.9° 1 км - - - -
11:00 +13.2° З 5 10 20 км дождь облачно 723 746 +1.4 90% +11.6° более 2.5 км - - - -
08:00 +11.9° З 5 11 4 км слабый непрерывный дождь облачно 722 745 +0.1 94% +10.9° более 2.5 км 6 Влажная (без луж) +8° -
05:00 +10.1° З,Ю-З 3 - 20 км - облачно 722 745 -0.7 96% +9.5° более 2.5 км - - - -
02:00 +9.8° З 3 - 20 км - преимущественно облачно 723 745 -0.2 92% +8.5° 1 км - - - -